• Join FlightAware (Why Join?)
  • Login
  • US Flag 
12:32AM EDT


 

Airport Tracker/Info


-or-


 

Live Flight TrackerFlight Track Log ✈ UAL3740 ✈ 01-Nov-2013 ✈ KIAD - KORD

Flight Track Log - Related Links

Times and Time Zones

All times are in EDT time to prevent confusion due to time zone crossing. See the UAL3740 flight status page for this flight to view local times or setup timezone preferences in your user account.

Time Position Orientation Groundspeed Altitude Reporting Facility
EDT Latitude Longitude Course Direction KTS MPH feet Rate Location/Type
06:11AM 38.9500 -77.5333 275° West 198 228 2,600  Level Potomac TRACON
06:13AM 38.9311 -77.6597 259° West 191 220 5,000 1,740 Climbing Washington Center
06:14AM 39.1132 -77.9372 277° West  Level Estimated
06:14AM 38.8906 -77.7092 224° Southwest 191 220 7,600  Level Washington Center
06:15AM 39.1543 -78.0569 270° West  Level Estimated
06:15AM 38.8894 -77.7786 269° West 191 220 10,000  Level Washington Center
06:16AM 39.1953 -78.1767 275° West  Level Estimated
06:16AM 38.9044 -77.8697 282° West 247 284 11,100  Level Washington Center
06:17AM 38.9192 -77.9661 281° West 273 314 11,900 1,140 Climbing Washington Center
06:18AM 38.9378 -78.0817 282° West 311 358 13,400 1,740 Climbing Washington Center
06:19AM 38.9581 -78.1997 282° West 333 383 15,400 1,920 Climbing Washington Center
06:20AM 38.9681 -78.3203 276° West 338 389 17,400 1,920 Climbing Washington Center
06:21AM 38.9756 -78.4381 275° West 338 389 19,300 1,440 Climbing Washington Center
06:22AM 38.9831 -78.5611 275° West 338 389 20,300 960 Climbing Washington Center
06:23AM 38.9903 -78.6897 274° West 352 405 21,300 960 Climbing Washington Center
06:24AM 38.9992 -78.8236 275° West 367 422 22,300 960 Climbing Washington Center
06:25AM 39.0061 -78.9547 274° West 377 434 23,300 1,200 Climbing Washington Center
06:26AM 39.0147 -79.0886 275° West 377 434 24,700 1,380 Climbing Washington Center
06:27AM 39.0233 -79.2200 275° West 377 434 26,100 1,440 Climbing Washington Center
06:28AM 39.0300 -79.3461 274° West 366 421 27,600 1,320 Climbing Washington Center
06:29AM 39.0408 -79.4669 277° West 361 415 28,800 1,260 Climbing Washington Center
06:30AM 39.0514 -79.5850 277° West 349 402 30,200 1,020 Climbing Washington Center
06:31AM 39.0578 -79.7056 274° West 344 396 30,900 540 Climbing Washington Center
06:32AM 39.0639 -79.8264 274° West 339 390 31,400 480 Climbing Washington Center
06:33AM 39.0736 -80.0208 274° West 354 407 32,200 480 Climbing Indianapolis Center
06:34AM 39.0800 -80.1400 274° West 357 411 32,700 480 Climbing Indianapolis Center
06:35AM 39.0872 -80.2694 274° West 361 415 33,200 480 Climbing Indianapolis Center
06:37AM 39.0939 -80.4008 274° West 366 421 33,700 360 Climbing Indianapolis Center
06:38AM 39.1014 -80.5311 274° West 365 420 34,000 120 Climbing Indianapolis Center
06:39AM 39.1081 -80.6644 274° West 373 429 34,000  Level Indianapolis Center
06:40AM 39.1403 -80.7964 288° West 390 449 34,000  Level Indianapolis Center
06:41AM 39.1983 -80.9236 301° West 411 473 34,000  Level Indianapolis Center
06:42AM 39.2533 -81.0483 300° West 405 466 34,000  Level Indianapolis Center
06:43AM 39.3186 -81.1961 300° West 399 459 34,000  Level Indianapolis Center
06:44AM 39.3731 -81.3194 300° West 397 457 34,000  Level Indianapolis Center
06:45AM 39.4275 -81.4428 300° West 397 457 34,000  Level Indianapolis Center
06:46AM 39.4825 -81.5675 300° West 399 459 34,000  Level Indianapolis Center
06:47AM 39.5369 -81.6928 299° West 400 460 34,000  Level Indianapolis Center
06:48AM 39.5914 -81.8167 300° West 398 458 34,000  Level Indianapolis Center
06:49AM 39.6458 -81.9428 299° West 400 460 34,000  Level Indianapolis Center
06:50AM 39.7006 -82.0681 300° West 400 460 34,000  Level Indianapolis Center
06:51AM 39.7572 -82.2017 299° West 404 465 34,000  Level Indianapolis Center
06:52AM 39.8122 -82.3289 299° West 405 466 34,000  Level Indianapolis Center
06:53AM 39.8672 -82.4572 299° West 408 470 34,000  Level Indianapolis Center
06:54AM 39.9211 -82.5867 299° West 409 471 34,000  Level Indianapolis Center
06:55AM 39.9758 -82.7147 299° West 407 468 34,000  Level Indianapolis Center
06:56AM 40.0308 -82.8436 299° West 408 470 34,000  Level Indianapolis Center
06:57AM 40.0844 -82.9739 298° West 410 472 34,000  Level Indianapolis Center
06:58AM 40.1392 -83.1033 299° West 411 473 34,000  Level Indianapolis Center
06:59AM 40.2039 -83.2586 299° West 411 473 34,000  Level Indianapolis Center
07:00AM 40.2583 -83.3892 299° West 412 474 34,000  Level Indianapolis Center
07:01AM 40.3125 -83.5214 298° West 415 478 34,000  Level Indianapolis Center
07:02AM 40.3672 -83.6539 298° West 417 480 34,000  Level Indianapolis Center
07:03AM 40.4217 -83.7867 298° West 416 479 34,000  Level Indianapolis Center
07:04AM 40.4761 -83.9208 298° West 419 482 34,000  Level Indianapolis Center
07:05AM 40.5297 -84.0542 298° West 415 478 34,000  Level Indianapolis Center
07:06AM 40.5836 -84.1889 298° West 417 480 34,000  Level Indianapolis Center
07:07AM 40.6386 -84.3242 298° West 421 484 34,000  Level Indianapolis Center
07:08AM 40.6925 -84.4600 298° West 420 483 34,000  Level Indianapolis Center
07:09AM 40.7567 -84.6250 297° West 424 488 34,000  Level Indianapolis Center
07:10AM 40.8103 -84.7619 297° West 421 484 34,000  Level Indianapolis Center
07:11AM 40.8611 -84.9011 296° West 424 488 34,000  Level Indianapolis Center
07:12AM 40.9092 -85.0278 297° West 424 488 34,000 -360 Level Indianapolis Center
07:13AM 40.9619 -85.1667 297° West 426 490 33,300 -1,140 Descending Indianapolis Center
07:14AM 41.0144 -85.3031 297° West 420 483 31,700 -2,280 Descending Indianapolis Center
07:15AM 41.0722 -85.4600 296° West 402 463 28,700 -2,760 Descending Indianapolis Center
07:16AM 41.1214 -85.5864 297° West 389 448 26,200 -1,860 Descending Indianapolis Center
07:17AM 41.1622 -85.7078 294° West 367 422 25,000 -600 Descending Indianapolis Center
07:18AM 41.2075 -85.8308 296° West 372 428 25,000  Level Indianapolis Center
07:19AM 41.2511 -85.9600 294° West 383 441 25,000 -300 Level Indianapolis Center
07:20AM 41.2953 -86.0875 295° West 383 441 24,400 -1,320 Descending Indianapolis Center
07:21AM 41.3367 -86.2150 293° West 380 437 22,400 -1,980 Descending Indianapolis Center
07:22AM 41.3758 -86.3331 294° West 367 422 20,400 -2,280 Descending Indianapolis Center
07:23AM 41.4239 -86.4917 292° West 359 413 17,400 -2,280 Descending Chicago Center
07:24AM 41.4594 -86.6128 291° West 354 407 15,400 -2,100 Descending Chicago Center
07:25AM 41.5267 -86.7256 309° West 351 404 13,200 -1,680 Descending Chicago Center
07:26AM 41.6242 -86.7664 343° North 371 427 12,000 -600 Descending Chicago Center
07:27AM 41.7164 -86.8008 344° North 354 407 12,000  Level Chicago Center
07:28AM 41.8150 -86.8169 353° North 357 411 12,000 -300 Level Chicago Center
07:30AM 41.8925 -86.8781 330° Northwest 340 391 11,500 -1,020 Descending Chicago Center
07:31AM 41.9306 -86.9878 295° West 327 376 10,000 -780 Descending Chicago Center
07:32AM 41.9622 -87.0978 291° West 321 369 10,000  Level Chicago Center
07:33AM 41.9647 -87.2122 272° West 313 360 10,000 -900 Level Chicago Center
07:34AM 41.9656 -87.3217 271° West 249 287 8,200 -1,500 Descending Chicago Center
07:35AM 41.9664 -87.4131 271° West 247 284 7,000 -660 Descending Chicago Center
07:36AM 41.9656 -87.4881 269° West 210 242 6,900 -720 Descending Chicago Center
07:37AM 41.9647 -87.5656 269° West 209 241 5,600 -1,140 Descending Chicago Center
07:38AM 41.9664 -87.6350 272° West 200 230 4,600 -960 Descending Chicago Center
07:39AM 41.9658 -87.6928 269° West 180 207 3,700 -900 Descending Chicago Center
07:40AM 41.9661 -87.7514 270° West 167 192 2,800 -900 Descending Chicago Center
07:41AM 41.9667 -87.8106 271° West 150 173 1,900 -780 Descending Chicago Center
07:42AM 41.9667 -87.8542 270° West 132 152 1,300 -600 Descending Chicago Center